Time;durP1;ratioP1;P1;durP2;ratioP2;P2;SDS_P1;SDS_P2;PMS_P1;PMS_P2;Temp;Humidity;BMP_temperature;BMP_pressure;BME280_temperature;BME280_humidity;BME280_pressure;Samples;Min_cycle;Max_cycle;Signal;HPM_P1;HPM_P2
2022/04/20 00:01:19;;;;;;;15.35;8.77;;;;;;;10.90;54.85;101755.69;4808017;28;119994;-84
2022/04/20 00:03:44;;;;;;;11.43;9.15;;;;;;;10.94;55.04;101750.88;4828928;28;122956;-84
2022/04/20 00:06:10;;;;;;;14.85;9.50;;;;;;;11.02;54.12;101751.50;4834498;28;120620;-82
2022/04/20 00:08:35;;;;;;;14.55;8.95;;;;;;;11.01;54.63;101756.22;4843203;28;120874;-84
2022/04/20 00:11:01;;;;;;;12.45;8.77;;;;;;;11.03;54.73;101755.78;4827759;28;120390;-84
2022/04/20 00:13:27;;;;;;;14.95;8.60;;;;;;;11.05;54.10;101753.38;4831645;28;120056;-83
2022/04/20 00:15:55;;;;;;;13.38;8.85;;;;;;;11.06;53.27;101763.94;4827070;28;119793;-84
2022/04/20 00:18:21;;;;;;;13.10;9.00;;;;;;;10.83;53.55;101739.34;4810919;29;123508;-84
2022/04/20 00:20:46;;;;;;;13.95;9.32;;;;;;;10.93;53.53;101760.31;4801343;29;120523;-84
2022/04/20 00:23:12;;;;;;;12.63;8.90;;;;;;;10.89;54.32;101754.16;4832380;28;123107;-84
2022/04/20 00:25:38;;;;;;;13.13;9.27;;;;;;;10.96;54.52;101772.41;4817406;28;119817;-84
2022/04/20 00:28:03;;;;;;;13.90;9.55;;;;;;;10.95;54.38;101766.16;4816166;28;122332;-83
2022/04/20 00:30:29;;;;;;;14.40;9.40;;;;;;;10.94;54.65;101761.88;4818542;28;123530;-83
2022/04/20 00:32:55;;;;;;;13.13;8.70;;;;;;;10.81;53.96;101752.72;4798503;28;119433;-83
2022/04/20 00:35:21;;;;;;;15.10;9.30;;;;;;;10.85;53.80;101767.16;4824660;28;119955;-84
2022/04/20 00:37:50;;;;;;;9.80;8.75;;;;;;;10.80;54.45;101761.41;4808593;28;122512;-82
2022/04/20 00:40:15;;;;;;;12.40;9.02;;;;;;;10.69;54.08;101761.63;4815946;28;119676;-85
2022/04/20 00:42:41;;;;;;;10.82;8.70;;;;;;;10.68;54.52;101765.59;4799714;28;122774;-84
2022/04/20 00:45:08;;;;;;;15.85;9.35;;;;;;;10.53;54.40;101751.38;4844798;28;120404;-83
2022/04/20 00:47:40;;;;;;;12.73;8.50;;;;;;;10.54;53.78;101766.63;4815571;28;122400;-83
2022/04/20 00:50:07;;;;;;;15.18;9.20;;;;;;;10.45;53.78;101769.97;4814655;28;122685;-84
2022/04/20 00:52:33;;;;;;;13.30;8.88;;;;;;;10.28;54.42;101748.38;4834288;28;121277;-84
2022/04/20 00:55:00;;;;;;;13.63;9.05;;;;;;;10.20;54.72;101747.72;4817388;28;121611;-85
2022/04/20 00:57:26;;;;;;;11.90;8.88;;;;;;;10.29;54.58;101763.63;4809156;28;119905;-85
2022/04/20 00:59:53;;;;;;;12.88;8.52;;;;;;;9.95;54.75;101714.53;4844441;28;120988;-85
2022/04/20 01:02:21;;;;;;;14.48;9.13;;;;;;;10.12;54.99;101752.53;4830730;28;122043;-84
2022/04/20 01:04:49;;;;;;;13.60;9.07;;;;;;;10.10;55.09;101757.66;4809368;29;120999;-84
2022/04/20 01:07:37;;;;;;;12.48;8.95;;;;;;;10.12;55.38;101776.44;4835682;28;119902;-84
2022/04/20 01:10:15;;;;;;;15.38;9.10;;;;;;;10.08;55.67;101773.00;4828685;28;125520;-84
2022/04/20 01:13:05;;;;;;;13.20;9.10;;;;;;;9.98;55.84;101763.00;4832626;28;121109;-83
2022/04/20 01:15:51;;;;;;;12.90;8.75;;;;;;;9.97;55.37;101766.94;4789130;28;122152;-85
2022/04/20 01:18:42;;;;;;;13.38;9.15;;;;;;;9.96;55.74;101768.91;4827066;28;122861;-84
2022/04/20 01:21:25;;;;;;;14.27;9.20;;;;;;;9.87;56.08;101756.94;4813739;28;120533;-84
2022/04/20 01:24:11;;;;;;;11.45;9.05;;;;;;;9.85;56.21;101758.13;4791606;28;121739;-84
2022/04/20 01:27:15;;;;;;;12.63;9.15;;;;;;;9.87;56.91;101762.41;4777736;29;122671;-86
2022/04/20 01:30:00;;;;;;;14.60;9.60;;;;;;;9.84;56.68;101758.56;4795145;29;120164;-85
2022/04/20 01:32:37;;;;;;;14.55;9.50;;;;;;;9.81;56.32;101754.69;4810731;28;120685;-85
2022/04/20 01:35:08;;;;;;;15.05;9.57;;;;;;;9.71;56.60;101741.97;4813726;29;120172;-84
2022/04/20 01:37:34;;;;;;;12.30;9.43;;;;;;;9.73;56.70;101758.75;4825225;28;120526;-86
2022/04/20 01:39:59;;;;;;;11.35;9.07;;;;;;;9.66;56.97;101753.38;4812747;29;122672;-85
2022/04/20 01:42:25;;;;;;;11.75;9.00;;;;;;;9.69;56.39;101760.75;4824748;28;119924;-85
2022/04/20 01:44:55;;;;;;;12.70;9.27;;;;;;;9.61;56.29;101751.13;4805965;29;121505;-84
2022/04/20 01:47:47;;;;;;;12.05;8.90;;;;;;;9.57;56.80;101753.16;4826625;28;123244;-83
2022/04/20 01:53:50;;;;;;;12.90;9.18;;;;;;;9.41;57.64;101736.59;4821859;28;119779;-85
2022/04/20 01:56:36;;;;;;;13.73;9.32;;;;;;;9.48;56.99;101747.44;4809642;29;120168;-85
2022/04/20 01:59:15;;;;;;;11.73;9.60;;;;;;;9.46;57.62;101747.06;4817591;28;119797;-85
2022/04/20 02:04:46;;;;;;;12.43;9.73;;;;;;;9.39;57.58;101738.97;4814480;29;119886;-85
2022/04/20 02:07:11;;;;;;;14.00;9.70;;;;;;;9.43;57.55;101743.19;4814538;29;119556;-85
2022/04/20 02:09:42;;;;;;;12.77;9.32;;;;;;;9.28;58.04;101711.00;4816413;29;120217;-85
2022/04/20 02:12:13;;;;;;;12.50;9.27;;;;;;;9.39;57.68;101730.75;4830416;28;120801;-85
2022/04/20 02:14:57;;;;;;;11.35;8.68;;;;;;;9.43;57.41;101745.16;4831101;28;121218;-84
2022/04/20 02:17:49;;;;;;;13.38;9.63;;;;;;;9.42;57.32;101743.59;4831891;28;120336;-86
2022/04/20 02:20:21;;;;;;;13.57;9.65;;;;;;;9.39;57.90;101736.22;4807602;29;121178;-86
2022/04/20 02:22:47;;;;;;;14.05;9.05;;;;;;;9.30;57.31;101727.78;4817081;29;123401;-84
2022/04/20 02:25:15;;;;;;;12.02;9.75;;;;;;;9.26;57.39;101727.06;4801933;29;121064;-84
2022/04/20 02:27:44;;;;;;;15.50;10.10;;;;;;;9.32;57.79;101736.34;4819982;29;122420;-85
2022/04/20 02:30:10;;;;;;;13.20;10.35;;;;;;;9.28;57.95;101735.63;4821414;29;122939;-83
2022/04/20 02:32:36;;;;;;;14.65;9.30;;;;;;;9.22;57.54;101736.09;4837645;28;119376;-86
2022/04/20 02:35:02;;;;;;;14.98;10.05;;;;;;;9.16;57.89;101726.81;4825751;28;119714;-86
2022/04/20 02:37:29;;;;;;;13.15;9.05;;;;;;;9.11;57.74;101719.06;4819534;28;120056;-83
2022/04/20 02:39:55;;;;;;;15.57;10.15;;;;;;;9.23;57.90;101737.66;4846472;28;119954;-85
2022/04/20 02:42:21;;;;;;;14.45;10.13;;;;;;;9.16;57.99;101731.50;4821593;28;120202;-84
2022/04/20 02:44:47;;;;;;;13.13;10.25;;;;;;;9.20;58.47;101743.94;4816226;28;119975;-85
2022/04/20 02:47:15;;;;;;;13.13;9.82;;;;;;;9.13;58.23;101726.88;4809817;28;120301;-87
2022/04/20 02:49:41;;;;;;;13.82;10.50;;;;;;;9.23;58.60;101740.41;4833734;28;121616;-86
2022/04/20 02:52:07;;;;;;;14.82;10.23;;;;;;;9.17;58.14;101728.34;4827952;28;119564;-84
2022/04/20 02:54:33;;;;;;;12.50;9.25;;;;;;;9.11;57.99;101730.00;4818649;28;121221;-85
2022/04/20 02:57:01;;;;;;;11.70;9.32;;;;;;;9.14;57.85;101736.63;4836268;28;119858;-86
2022/04/20 02:59:27;;;;;;;12.27;9.48;;;;;;;9.07;57.74;101734.78;4809140;28;120145;-85
2022/04/20 03:01:54;;;;;;;12.85;9.73;;;;;;;9.09;57.31;101737.09;4804676;28;122002;-83
2022/04/20 03:04:20;;;;;;;12.95;9.90;;;;;;;9.06;57.56;101733.22;4802618;28;119876;-84
2022/04/20 03:06:46;;;;;;;12.98;10.00;;;;;;;8.95;57.96;101715.41;4833561;28;121633;-84
2022/04/20 03:09:38;;;;;;;13.00;9.40;;;;;;;9.00;57.79;101729.41;4831526;28;122789;-83
2022/04/20 03:12:06;;;;;;;13.20;9.63;;;;;;;9.06;57.40;101743.41;4797869;29;119704;-86
2022/04/20 03:14:34;;;;;;;15.73;10.38;;;;;;;8.90;58.14;101722.13;4819090;28;119770;-83
2022/04/20 03:17:01;;;;;;;14.25;10.35;;;;;;;8.88;57.24;101717.06;4816552;28;120423;-84
2022/04/20 03:19:27;;;;;;;12.68;10.13;;;;;;;8.96;57.36;101723.19;4809672;29;119779;-83
2022/04/20 03:21:52;;;;;;;14.15;11.18;;;;;;;8.96;57.82;101723.19;4816547;29;121609;-85
2022/04/20 03:24:20;;;;;;;13.98;10.32;;;;;;;8.88;57.52;101721.75;4808701;29;123304;-84
2022/04/20 03:27:06;;;;;;;12.80;10.52;;;;;;;8.95;57.37;101735.34;4819686;28;119698;-83
2022/04/20 03:29:41;;;;;;;15.27;10.60;;;;;;;8.88;58.11;101728.00;4802926;29;123378;-84
2022/04/20 03:32:12;;;;;;;14.10;10.60;;;;;;;8.89;58.15;101737.00;4823546;28;120582;-82
2022/04/20 03:34:39;;;;;;;14.63;11.40;;;;;;;8.83;58.23;101725.75;4831533;28;122328;-86
2022/04/20 03:37:06;;;;;;;15.25;11.40;;;;;;;8.87;58.22;101729.19;4831785;28;122567;-86
2022/04/20 03:39:33;;;;;;;16.40;10.93;;;;;;;8.80;58.47;101723.84;4801526;29;119556;-83
2022/04/20 03:41:58;;;;;;;13.35;11.13;;;;;;;8.76;58.44;101714.91;4834916;28;120472;-84
2022/04/20 03:44:24;;;;;;;12.65;10.20;;;;;;;8.81;58.50;101728.13;4810976;29;121419;-85
2022/04/20 03:46:51;;;;;;;12.85;10.52;;;;;;;8.73;57.96;101721.19;4813692;29;122689;-86
2022/04/20 03:49:16;;;;;;;13.95;10.55;;;;;;;8.77;58.36;101721.16;4826285;28;120811;-83
2022/04/20 03:51:43;;;;;;;14.00;10.43;;;;;;;8.77;58.00;101726.63;4806053;29;119367;-85
2022/04/20 03:54:09;;;;;;;13.32;10.90;;;;;;;8.82;58.66;101734.38;4802205;28;122119;-87
2022/04/20 03:59:21;;;;;;;11.88;10.48;;;;;;;8.75;58.00;101720.75;4832571;28;119547;-84
2022/04/20 04:01:48;;;;;;;12.50;10.13;;;;;;;8.72;58.33;101722.38;4815300;28;122478;-86
2022/04/20 04:04:13;;;;;;;13.20;10.38;;;;;;;8.76;57.44;101723.13;4834684;28;122522;-83
2022/04/20 04:06:41;;;;;;;13.18;10.18;;;;;;;8.76;57.75;101725.84;4792288;29;119783;-87
2022/04/20 04:09:07;;;;;;;15.23;10.70;;;;;;;8.75;57.32;101728.97;4831518;28;120358;-84
2022/04/20 04:11:33;;;;;;;13.73;10.25;;;;;;;8.68;57.85;101723.59;4810103;29;119718;-85
2022/04/20 04:13:59;;;;;;;14.57;11.00;;;;;;;8.78;58.24;101734.41;4799586;29;122004;-83
2022/04/20 04:16:24;;;;;;;16.60;11.77;;;;;;;8.77;58.12;101726.63;4830460;28;120140;-84
2022/04/20 04:18:53;;;;;;;13.27;11.18;;;;;;;8.79;58.15;101718.78;4819864;28;119586;-87
2022/04/20 04:21:19;;;;;;;13.35;10.18;;;;;;;8.78;58.04;101722.69;4806997;29;122313;-87
2022/04/20 04:23:45;;;;;;;14.68;10.65;;;;;;;8.85;57.62;101733.53;4835741;28;122743;-82
2022/04/20 04:26:20;;;;;;;16.08;10.45;;;;;;;8.80;57.44;101725.78;4817303;29;121224;-86
2022/04/20 04:28:50;;;;;;;13.63;10.32;;;;;;;8.80;58.16;101717.59;4834201;28;120652;-84
2022/04/20 04:31:19;;;;;;;16.00;11.27;;;;;;;8.84;57.88;101715.56;4822830;28;119743;-86
2022/04/20 04:33:45;;;;;;;13.98;11.25;;;;;;;8.98;58.14;101726.28;4808394;29;122165;-84
2022/04/20 04:36:10;;;;;;;15.55;11.20;;;;;;;9.04;59.06;101735.59;4816344;29;122764;-85
2022/04/20 04:38:42;;;;;;;13.65;10.23;;;;;;;9.10;58.55;101728.47;4800546;29;119810;-86
2022/04/20 04:41:10;;;;;;;14.90;10.55;;;;;;;9.13;57.96;101730.38;4813615;29;122388;-85
2022/04/20 04:43:36;;;;;;;13.40;10.73;;;;;;;9.05;57.94;101709.78;4831139;28;119921;-86
2022/04/20 04:49:16;;;;;;;14.13;11.05;;;;;;;9.27;58.82;101717.66;4812332;28;121212;-86
2022/04/20 04:51:42;;;;;;;15.43;11.38;;;;;;;9.30;58.82;101719.56;4833378;28;120477;-84
2022/04/20 04:54:08;;;;;;;13.90;10.60;;;;;;;9.38;57.92;101723.72;4832710;28;119572;-84
2022/04/20 04:56:34;;;;;;;11.93;10.27;;;;;;;9.34;58.60;101709.31;4831182;28;123133;-86
2022/04/20 04:59:00;;;;;;;11.27;10.07;;;;;;;9.42;58.57;101717.00;4829730;28;120261;-87
2022/04/20 05:01:27;;;;;;;12.63;10.30;;;;;;;9.56;58.45;101723.44;4812822;29;121952;-86
2022/04/20 05:03:58;;;;;;;12.45;10.52;;;;;;;9.58;58.50;101724.56;4801860;29;123916;-86
2022/04/20 05:06:23;;;;;;;13.57;10.45;;;;;;;9.54;59.21;101712.91;4830857;28;120212;-85
2022/04/20 05:09:18;;;;;;;15.23;10.82;;;;;;;9.58;59.12;101702.66;4813574;28;122060;-86
2022/04/20 05:11:45;;;;;;;12.45;10.80;;;;;;;9.72;59.73;101712.59;4818432;28;121887;-84
2022/04/20 05:14:13;;;;;;;12.65;10.40;;;;;;;9.86;59.57;101720.53;4836689;28;119743;-86
2022/04/20 05:16:43;;;;;;;14.43;10.80;;;;;;;9.93;58.64;101722.38;4807337;29;122753;-85
2022/04/20 05:19:11;;;;;;;13.95;10.73;;;;;;;9.98;59.21;101725.41;4817062;28;119362;-84
2022/04/20 05:21:38;;;;;;;12.20;10.32;;;;;;;9.91;59.29;101703.59;4815583;28;121675;-85
2022/04/20 05:24:04;;;;;;;12.93;10.63;;;;;;;10.02;59.93;101703.41;4824528;28;123980;-85
2022/04/20 05:26:34;;;;;;;14.45;10.27;;;;;;;10.25;59.95;101719.06;4810136;28;120019;-85
2022/04/20 05:28:59;;;;;;;14.18;11.10;;;;;;;10.26;59.63;101707.66;4826056;29;122010;-85
2022/04/20 05:31:25;;;;;;;14.00;11.20;;;;;;;10.43;60.61;101727.69;4805463;29;123020;-86
2022/04/20 05:33:52;;;;;;;16.27;11.13;;;;;;;10.54;60.46;101732.94;4833129;28;119597;-85
2022/04/20 05:36:18;;;;;;;15.70;10.48;;;;;;;10.64;60.42;101721.72;4834323;28;121503;-85
2022/04/20 05:41:42;;;;;;;14.15;10.25;;;;;;;10.85;59.73;101720.50;4840264;28;119509;-85
2022/04/20 05:44:19;;;;;;;15.52;10.65;;;;;;;10.93;60.03;101723.84;4832968;28;122973;-85
2022/04/20 05:46:46;;;;;;;16.27;10.10;;;;;;;11.05;59.56;101729.44;4830127;28;120485;-85
2022/04/20 05:49:14;;;;;;;11.00;9.18;;;;;;;11.13;59.27;101716.34;4831405;28;121659;-85
2022/04/20 05:51:40;;;;;;;14.63;9.85;;;;;;;11.11;58.19;101698.72;4813686;29;123229;-84
2022/04/20 05:54:09;;;;;;;15.63;10.23;;;;;;;11.38;58.69;101726.72;4833435;28;119458;-85
2022/04/20 05:56:36;;;;;;;13.52;9.65;;;;;;;11.47;58.27;101723.34;4819584;28;122885;-83
2022/04/20 05:59:06;;;;;;;14.10;9.18;;;;;;;11.51;58.61;101713.81;4844421;28;119893;-85
2022/04/20 06:01:38;;;;;;;12.25;9.38;;;;;;;11.65;58.30;101718.94;4820098;28;121723;-84
2022/04/20 06:04:13;;;;;;;12.48;8.40;;;;;;;11.81;57.25;101731.13;4833880;28;120327;-84
2022/04/20 06:06:42;;;;;;;11.60;6.93;;;;;;;11.82;55.44;101727.16;4852653;28;119957;-83
2022/04/20 06:09:18;;;;;;;9.70;6.93;;;;;;;11.98;54.93;101743.63;4843549;28;122474;-86
2022/04/20 06:11:53;;;;;;;12.75;7.30;;;;;;;12.08;54.79;101748.09;4816545;28;121560;-83
2022/04/20 06:14:22;;;;;;;11.10;6.95;;;;;;;12.09;53.95;101726.84;4830074;28;119920;-84
2022/04/20 06:16:54;;;;;;;11.23;6.70;;;;;;;12.19;54.23;101726.56;4813952;28;119836;-84
2022/04/20 06:19:31;;;;;;;9.43;6.43;;;;;;;12.37;53.19;101736.28;4851444;28;121037;-84
2022/04/20 06:22:14;;;;;;;8.40;5.57;;;;;;;12.38;51.08;101735.84;4823221;28;123352;-84
2022/04/20 06:25:02;;;;;;;7.28;5.53;;;;;;;12.44;50.47;101736.06;4827366;28;120230;-84
2022/04/20 06:27:34;;;;;;;8.68;5.28;;;;;;;12.55;50.73;101747.56;4831907;28;120141;-85
2022/04/20 06:30:20;;;;;;;7.93;5.10;;;;;;;12.65;50.21;101743.69;4847395;28;120758;-85
2022/04/20 06:33:18;;;;;;;7.40;5.63;;;;;;;12.57;50.09;101723.88;4831313;28;120331;-86
2022/04/20 06:36:02;;;;;;;;;;;;;;;12.78;50.78;101744.50;4834729;28;119435;-82
2022/04/20 06:38:39;;;;;;;8.05;5.43;;;;;;;12.78;50.00;101744.50;4827266;28;121961;-86
2022/04/20 06:41:28;;;;;;;7.38;5.15;;;;;;;13.00;49.36;101749.31;4825752;28;122604;-86
2022/04/20 06:44:12;;;;;;;8.68;4.60;;;;;;;13.04;49.64;101744.50;4832142;28;119936;-85
2022/04/20 06:46:37;;;;;;;10.32;4.72;;;;;;;13.12;49.12;101729.28;4829088;28;122739;-85
2022/04/20 06:49:18;;;;;;;8.95;3.92;;;;;;;13.30;48.22;101737.78;4816666;28;120422;-84
2022/04/20 06:58:31;;;;;;;6.28;3.72;;;;;;;13.44;47.78;101712.50;4828032;28;119673;-86
2022/04/20 07:00:26;;;;;;;8.35;3.35;;;;;;;13.58;45.86;101730.56;4808570;28;121815;-84
2022/04/20 07:03:18;;;;;;;4.10;3.20;;;;;;;13.70;45.60;101720.69;4832776;28;121012;-84
2022/04/20 07:05:55;;;;;;;5.22;3.97;;;;;;;13.79;46.06;101724.31;4836694;28;120571;-86
2022/04/20 07:08:43;;;;;;;7.10;3.42;;;;;;;13.87;45.97;101726.81;4821519;28;124376;-86
2022/04/20 07:11:19;;;;;;;5.55;2.90;;;;;;;13.88;45.31;101707.06;4818891;28;119395;-86
2022/04/20 07:13:48;;;;;;;6.40;3.22;;;;;;;14.02;44.10;101723.09;4817210;28;121763;-85
2022/04/20 07:16:14;;;;;;;4.68;3.05;;;;;;;14.00;44.37;101706.22;4815995;28;123998;-85
2022/04/20 07:18:43;;;;;;;6.90;3.00;;;;;;;14.12;43.68;101715.66;4829706;28;120516;-86
2022/04/20 07:21:29;;;;;;;;;;;;;;;14.21;44.60;101729.53;4828952;28;121027;-84
2022/04/20 07:24:15;;;;;;;5.35;2.75;;;;;;;14.22;43.61;101717.28;4828543;28;120748;-84
2022/04/20 07:26:40;;;;;;;4.63;3.03;;;;;;;14.26;43.90;101726.19;4827386;28;120584;-84
2022/04/20 07:29:13;;;;;;;4.93;3.17;;;;;;;14.34;43.18;101727.44;4812090;28;121592;-86
2022/04/20 07:31:41;;;;;;;4.43;2.95;;;;;;;14.45;43.17;101735.38;4828080;28;122582;-87
2022/04/20 07:34:20;;;;;;;3.85;2.78;;;;;;;14.48;44.42;101728.94;4821318;28;121886;-85
2022/04/20 07:37:03;;;;;;;8.45;3.70;;;;;;;14.61;44.34;101737.13;4814037;29;122884;-87
2022/04/20 07:39:48;;;;;;;4.75;2.88;;;;;;;14.63;44.40;101729.94;4839562;28;120280;-86
2022/04/20 07:42:40;;;;;;;3.63;2.60;;;;;;;14.74;42.82;101732.31;4816304;28;122202;-86
2022/04/20 07:45:32;;;;;;;2.85;2.10;;;;;;;14.78;42.30;101730.16;4825862;28;123368;-83
2022/04/20 07:48:17;;;;;;;5.88;2.60;;;;;;;14.93;42.10;101739.44;4829446;28;119904;-85
2022/04/20 07:51:00;;;;;;;4.63;2.50;;;;;;;15.04;42.23;101725.19;4803530;28;122117;-86
2022/04/20 07:53:32;;;;;;;5.05;2.67;;;;;;;15.24;42.62;101742.16;4831854;28;123316;-86
2022/04/20 07:56:14;;;;;;;5.03;2.97;;;;;;;15.40;43.07;101746.66;4838612;28;120903;-87
2022/04/20 07:58:46;;;;;;;4.32;2.50;;;;;;;15.52;42.51;101740.19;4831882;28;119824;-85
2022/04/20 08:01:32;;;;;;;5.65;2.35;;;;;;;15.60;42.59;101726.84;4817694;28;119780;-85
2022/04/20 08:04:16;;;;;;;5.13;2.30;;;;;;;15.83;41.08;101750.38;4833273;28;122248;-87
2022/04/20 08:06:56;;;;;;;4.55;2.35;;;;;;;15.90;39.61;101730.72;4830213;28;120409;-85
2022/04/20 08:09:23;;;;;;;4.72;2.17;;;;;;;15.94;41.07;101734.09;4811719;29;120178;-86
2022/04/20 08:11:52;;;;;;;3.75;2.33;;;;;;;16.11;41.52;101734.56;4809460;29;122352;-85
2022/04/20 08:14:21;;;;;;;4.10;2.15;;;;;;;16.19;41.85;101728.22;4826318;28;119970;-87
2022/04/20 08:16:54;;;;;;;3.78;2.22;;;;;;;16.27;42.22;101725.91;4816085;29;121304;-86
2022/04/20 08:19:23;;;;;;;2.90;2.15;;;;;;;16.46;41.98;101744.03;4831497;28;124480;-86
2022/04/20 08:22:06;;;;;;;4.75;2.58;;;;;;;16.54;40.25;101744.44;4825980;28;120885;-86
2022/04/20 08:24:32;;;;;;;4.80;2.40;;;;;;;16.43;39.96;101730.34;4812122;28;122019;-87
2022/04/20 08:26:58;;;;;;;4.18;2.60;;;;;;;16.54;40.90;101739.69;4832639;28;119993;-87
2022/04/20 08:29:23;;;;;;;6.40;3.03;;;;;;;16.58;40.12;101740.31;4827359;28;120133;-87
2022/04/20 08:31:49;;;;;;;5.60;2.70;;;;;;;16.53;40.12;101735.38;4830824;28;120199;-85
2022/04/20 08:34:14;;;;;;;4.95;2.70;;;;;;;16.50;38.98;101728.00;4829249;28;123871;-86
2022/04/20 08:36:40;;;;;;;4.53;2.47;;;;;;;16.51;39.32;101728.75;4819605;28;119873;-87
2022/04/20 08:39:05;;;;;;;7.97;2.88;;;;;;;16.58;41.75;101731.22;4837490;28;119379;-86
2022/04/20 08:41:31;;;;;;;6.28;2.75;;;;;;;16.44;41.34;101690.34;4832340;28;119974;-86
2022/04/20 08:43:59;;;;;;;6.82;2.40;;;;;;;16.85;40.27;101735.94;4814349;29;121869;-86
2022/04/20 08:46:26;;;;;;;6.18;2.75;;;;;;;16.82;39.99;101723.00;4844621;28;120302;-87
2022/04/20 08:48:52;;;;;;;6.65;3.00;;;;;;;16.89;40.76;101725.44;4819844;29;119812;-86
2022/04/20 08:51:18;;;;;;;6.90;2.92;;;;;;;16.90;41.01;101715.88;4818853;28;122087;-85
2022/04/20 08:53:44;;;;;;;7.07;3.28;;;;;;;17.10;40.30;101732.72;4822865;28;123921;-85
2022/04/20 08:58:56;;;;;;;4.53;2.80;;;;;;;17.04;39.68;101708.91;4830712;28;123205;-84
2022/04/20 09:01:25;;;;;;;5.60;2.90;;;;;;;17.04;38.53;101704.13;4821506;29;123124;-86
2022/04/20 09:03:55;;;;;;;7.13;2.88;;;;;;;16.99;38.22;101707.50;4832177;28;122515;-86
2022/04/20 09:06:20;;;;;;;5.55;2.90;;;;;;;16.98;38.04;101711.53;4828903;28;123217;-86
2022/04/20 09:08:46;;;;;;;5.43;3.35;;;;;;;16.98;38.20;101722.59;4828043;28;120034;-86
2022/04/20 09:11:14;;;;;;;5.13;3.03;;;;;;;16.90;38.29;101710.34;4826838;28;120087;-86
2022/04/20 09:13:45;;;;;;;6.53;3.40;;;;;;;16.94;38.18;101719.25;4826478;28;121356;-86
2022/04/20 09:16:12;;;;;;;6.75;3.08;;;;;;;16.92;37.75;101730.03;4828949;28;121762;-83
2022/04/20 09:18:39;;;;;;;5.38;3.42;;;;;;;16.81;37.45;101713.16;4815605;28;123436;-84
2022/04/20 09:21:10;;;;;;;6.63;3.50;;;;;;;16.85;37.62;101722.06;4798627;28;122879;-85
2022/04/20 09:23:36;;;;;;;5.85;3.83;;;;;;;16.72;37.49;101704.88;4833590;28;119987;-84
2022/04/20 09:26:18;;;;;;;4.72;3.75;;;;;;;16.80;37.91;101722.72;4829611;28;124064;-84
2022/04/20 09:29:06;;;;;;;6.20;3.70;;;;;;;16.79;37.77;101723.91;4814110;28;120925;-84
2022/04/20 09:31:46;;;;;;;7.32;3.60;;;;;;;16.78;38.90;101714.84;4831170;28;121846;-83
2022/04/20 09:34:53;;;;;;;7.75;4.13;;;;;;;16.82;38.35;101717.47;4813244;28;124211;-83
2022/04/20 09:37:21;;;;;;;7.47;4.65;;;;;;;16.77;37.95;101704.22;4830708;28;119877;-84
2022/04/20 09:39:50;;;;;;;7.95;4.95;;;;;;;16.80;37.95;101717.16;4831441;28;122547;-84
2022/04/20 09:42:17;;;;;;;8.70;4.75;;;;;;;16.83;38.75;101703.16;4798863;28;123506;-84
2022/04/20 09:45:12;;;;;;;7.40;4.28;;;;;;;16.80;38.24;101690.22;4832343;28;119871;-84
2022/04/20 09:50:27;;;;;;;8.10;4.63;;;;;;;16.96;38.90;101691.06;4829741;28;120330;-84
2022/04/20 09:53:02;;;;;;;7.15;4.60;;;;;;;16.99;38.10;101684.56;4828506;28;121845;-82
2022/04/20 09:55:33;;;;;;;9.25;5.05;;;;;;;16.98;37.47;101686.56;4828124;28;123840;-84
2022/04/20 09:58:12;;;;;;;10.50;5.05;;;;;;;16.96;37.79;101674.44;4831300;28;119835;-84
2022/04/20 10:00:55;;;;;;;7.97;5.20;;;;;;;16.94;38.00;101680.44;4844298;28;122225;-83
2022/04/20 10:03:28;;;;;;;8.98;5.60;;;;;;;16.98;38.01;101678.25;4813042;28;123017;-83
2022/04/20 10:05:55;;;;;;;8.30;5.03;;;;;;;16.97;38.39;101673.97;4829714;28;120278;-84
2022/04/20 10:08:21;;;;;;;11.98;5.93;;;;;;;16.97;39.01;101682.28;4818003;28;122004;-83
2022/04/20 10:10:52;;;;;;;13.75;6.82;;;;;;;17.02;38.49;101665.00;4831044;28;120297;-86
2022/04/20 10:13:19;;;;;;;9.30;5.70;;;;;;;17.07;38.73;101666.38;4828767;28;122334;-84
2022/04/20 10:18:33;;;;;;;12.13;6.32;;;;;;;17.03;38.72;101641.56;4811319;28;119900;-84
2022/04/20 10:21:00;;;;;;;12.32;6.88;;;;;;;17.05;38.22;101636.34;4828864;28;120237;-83
2022/04/20 10:23:29;;;;;;;15.85;7.63;;;;;;;17.13;38.02;101640.28;4830228;28;123338;-83
2022/04/20 10:25:56;;;;;;;11.48;6.90;;;;;;;17.12;38.16;101624.91;4829710;28;121172;-83
2022/04/20 10:29:02;;;;;;;13.38;7.00;;;;;;;17.22;37.96;101641.47;4830190;28;120039;-82
2022/04/20 10:31:38;;;;;;;16.10;7.55;;;;;;;17.26;38.66;101630.94;4832823;28;123566;-82
2022/04/20 10:34:05;;;;;;;16.55;7.45;;;;;;;17.29;37.44;101638.34;4799717;28;123028;-83
2022/04/20 10:36:40;;;;;;;11.82;6.63;;;;;;;17.37;37.59;101633.97;4814516;28;123798;-82
2022/04/20 10:39:20;;;;;;;12.57;7.10;;;;;;;17.37;36.96;101642.28;4812126;28;121468;-83
2022/04/20 10:42:20;;;;;;;12.00;6.72;;;;;;;17.39;36.92;101625.94;4832856;28;120477;-83
2022/04/20 10:44:55;;;;;;;13.68;7.43;;;;;;;17.37;37.25;101629.19;4817579;28;123361;-84
2022/04/20 10:47:23;;;;;;;13.05;7.38;;;;;;;17.38;36.88;101625.16;4833311;28;120075;-84
2022/04/20 10:49:50;;;;;;;15.00;7.35;;;;;;;17.30;36.84;101604.59;4847653;28;119889;-83
2022/04/20 10:52:39;;;;;;;14.82;7.35;;;;;;;17.35;36.70;101617.78;4833982;28;123419;-83
2022/04/20 10:55:06;;;;;;;15.35;7.53;;;;;;;17.34;36.72;101612.72;4853905;28;119559;-84
2022/04/20 10:57:42;;;;;;;9.05;6.32;;;;;;;17.40;37.54;101625.44;4816590;28;121390;-84
2022/04/20 11:00:33;;;;;;;11.68;6.95;;;;;;;17.48;37.81;101620.28;4835997;28;119837;-83
2022/04/20 11:03:01;;;;;;;11.07;7.22;;;;;;;17.51;37.61;101608.28;4833388;28;120841;-82
2022/04/20 11:05:27;;;;;;;12.07;7.35;;;;;;;17.52;37.88;101597.94;4832392;28;120306;-84
2022/04/20 11:08:04;;;;;;;15.00;7.20;;;;;;;17.58;37.24;101602.34;4833445;28;120014;-84
2022/04/20 11:10:32;;;;;;;11.80;6.85;;;;;;;17.66;37.09;101613.81;4816587;29;123265;-83
2022/04/20 11:19:06;;;;;;;12.25;7.28;;;;;;;17.70;37.27;101606.09;4834553;28;121894;-84
2022/04/20 11:21:55;;;;;;;11.48;6.53;;;;;;;17.71;37.43;101597.28;4833769;28;119781;-84
2022/04/20 11:24:30;;;;;;;12.25;7.05;;;;;;;17.74;37.15;101599.13;4823380;28;122867;-83
2022/04/20 11:26:58;;;;;;;12.55;7.05;;;;;;;17.75;36.65;101600.66;4803272;29;123050;-83
2022/04/20 11:29:30;;;;;;;9.68;5.88;;;;;;;17.78;37.47;101588.59;4830185;28;119746;-84
2022/04/20 11:32:00;;;;;;;13.38;6.70;;;;;;;17.78;37.42;101577.50;4843757;28;120193;-84
2022/04/20 11:34:46;;;;;;;11.32;6.45;;;;;;;17.82;38.00;101577.31;4834542;28;123410;-84
2022/04/20 11:37:11;;;;;;;12.05;7.20;;;;;;;17.88;37.61;101582.94;4855455;28;120008;-85
2022/04/20 11:39:37;;;;;;;10.57;6.53;;;;;;;17.94;37.13;101578.25;4834568;28;122141;-83
2022/04/20 11:42:06;;;;;;;11.38;6.57;;;;;;;18.02;37.70;101576.63;4839703;28;119963;-84
2022/04/20 11:44:35;;;;;;;10.13;6.00;;;;;;;18.07;38.10;101579.50;4834933;28;119863;-84
2022/04/20 11:47:09;;;;;;;10.80;5.15;;;;;;;18.14;38.06;101578.31;4806431;28;123251;-83
2022/04/20 11:49:41;;;;;;;11.13;6.07;;;;;;;18.11;37.39;101565.41;4806829;28;119808;-84
2022/04/20 11:52:11;;;;;;;12.32;6.88;;;;;;;18.19;36.83;101566.53;4846816;28;122606;-83
2022/04/20 11:54:39;;;;;;;11.80;6.47;;;;;;;18.23;37.36;101564.34;4836801;28;122998;-84
2022/04/20 11:57:10;;;;;;;11.60;5.28;;;;;;;18.24;36.78;101562.34;4812751;29;120610;-83
2022/04/20 11:59:46;;;;;;;11.65;5.40;;;;;;;18.32;37.79;101555.88;4826558;28;119612;-84
2022/04/20 12:02:13;;;;;;;9.45;4.90;;;;;;;18.27;36.78;101556.56;4831647;28;121842;-84
2022/04/20 12:04:39;;;;;;;9.43;4.80;;;;;;;18.34;36.99;101564.50;4827521;29;119823;-84
2022/04/20 12:07:08;;;;;;;9.63;4.95;;;;;;;18.36;37.06;101556.44;4830568;28;120512;-84
2022/04/20 12:09:36;;;;;;;8.00;5.45;;;;;;;18.32;37.14;101549.56;4835549;28;120012;-84
2022/04/20 12:12:20;;;;;;;8.90;5.15;;;;;;;18.37;36.22;101555.19;4820043;29;122173;-83